M/y Ava — MMPY8 — position and weather

sailwx.info

Track history (hours):
 
Tides and Currents Weather Stations Pressure Air Temp Water Temp Dewpoint Dewpoint Depression Visibility Wind Speed Wind Dir Waves Ship Positions

M/y Ava

Last reported at 2017-Jun-25 13:41 UTC. Time now 2017-Jun-25 19:13 UTC.
Position N 43°30' E 007°05'.

Length 40 m; draft 2.8 m.

Type: Pleasure craft. MMSI: 232358000.

Date/timePositionNaut miles runAvg speedWind from/ knotsBaromVisibWave heightAir tempDewpointWater temp
2017-Jun-25 13:41N 43°30' E 007°05'211.6
2017-Jun-25 13:30N 43°29' E 007°03'4 0.1
2017-Jun-23 11:36N 43°29' E 006°58'110.9
2017-Jun-23 11:30N 43°30' E 006°58'3 0.1
2017-Jun-22 10:54N 43°31' E 007°03'0 0.0
2017-Jun-22 10:29N 43°31' E 007°03'1 1.8
2017-Jun-22 09:51N 43°32' E 007°01'2 0.1
2017-Jun-21 11:31N 43°30' E 006°59'010.3
2017-Jun-21 11:30N 43°30' E 006°59'2 3.2
2017-Jun-21 11:00N 43°32' E 006°59'  
Track history (hours):
 
Tides and Currents Weather Stations Pressure Air Temp Water Temp Dewpoint Dewpoint Depression Visibility Wind Speed Wind Dir Waves Ship Positions

M/y Ava

Last reported at 2017-Jun-25 13:41 UTC. Time now 2017-Jun-25 19:13 UTC.
Position N 43°30' E 007°05'.

Length 40 m; draft 2.8 m.

Type: Pleasure craft. MMSI: 232358000.

Date/timePositionNaut miles runAvg speedWind from/ knotsBaromVisibWave heightAir tempDewpointWater temp
2017-Jun-25 13:41N 43°30' E 007°05'211.6
2017-Jun-25 13:30N 43°29' E 007°03'4 0.1
2017-Jun-23 11:36N 43°29' E 006°58'110.9
2017-Jun-23 11:30N 43°30' E 006°58'3 0.1
2017-Jun-22 10:54N 43°31' E 007°03'0 0.0
2017-Jun-22 10:29N 43°31' E 007°03'1 1.8
2017-Jun-22 09:51N 43°32' E 007°01'2 0.1
2017-Jun-21 11:31N 43°30' E 006°59'010.3
2017-Jun-21 11:30N 43°30' E 006°59'2 3.2
2017-Jun-21 11:00N 43°32' E 006°59'  

Dump ship's entire track history